createdAt,value
2019-05-11T00:02:40.993Z,9.70
2019-05-11T00:07:25.671Z,9.70
2019-05-11T00:12:10.742Z,9.70
2019-05-11T00:16:55.682Z,9.60
2019-05-11T00:21:40.735Z,9.60
2019-05-11T00:26:25.581Z,9.60
2019-05-11T00:31:10.355Z,9.60
2019-05-11T00:35:55.277Z,9.40
2019-05-11T00:40:39.878Z,9.60
2019-05-11T00:45:24.777Z,9.50
2019-05-11T00:50:10.100Z,9.40
2019-05-11T00:54:55.079Z,9.40
2019-05-11T00:59:39.939Z,9.30
2019-05-11T01:04:24.914Z,9.10
2019-05-11T01:09:10.302Z,8.80
2019-05-11T01:13:55.370Z,8.40
2019-05-11T01:18:40.439Z,8.10
2019-05-11T01:23:25.335Z,7.90
2019-05-11T01:28:10.531Z,7.70
2019-05-11T01:32:55.471Z,7.40
2019-05-11T01:37:40.282Z,7.10
2019-05-11T01:42:25.358Z,7.30
2019-05-11T01:47:10.038Z,7.30
2019-05-11T01:51:54.936Z,7.30
2019-05-11T01:56:40.047Z,7.30
2019-05-11T02:01:24.738Z,7.30
2019-05-11T02:06:09.409Z,7.30
2019-05-11T02:10:54.669Z,7.20
2019-05-11T02:15:39.791Z,7.20
2019-05-11T02:20:24.489Z,7.30
2019-05-11T02:25:09.169Z,7.40
2019-05-11T02:29:53.991Z,7.40
2019-05-11T02:34:38.970Z,7.40
2019-05-11T02:39:23.722Z,7.40
2019-05-11T02:44:08.622Z,7.30
2019-05-11T02:48:53.627Z,7.30
2019-05-11T02:53:41.267Z,7.30
2019-05-11T02:58:26.087Z,7.20
2019-05-11T03:03:11.348Z,7.10
2019-05-11T03:07:56.113Z,7.00
2019-05-11T03:12:41.004Z,6.80
2019-05-11T03:17:30.392Z,6.80
2019-05-11T03:22:15.247Z,6.90
2019-05-11T03:27:00.437Z,7.00
2019-05-11T03:31:45.355Z,7.10
2019-05-11T03:36:30.249Z,7.10
2019-05-11T03:41:15.050Z,7.10
2019-05-11T03:45:59.920Z,7.10
2019-05-11T03:50:44.854Z,7.10
2019-05-11T03:55:29.440Z,7.20
2019-05-11T04:00:14.481Z,7.30
2019-05-11T04:04:59.249Z,7.40
2019-05-11T04:09:44.094Z,7.50
2019-05-11T04:14:29.108Z,7.70
2019-05-11T04:19:14.012Z,7.80
2019-05-11T04:23:58.970Z,7.80
2019-05-11T04:28:43.746Z,7.80
2019-05-11T04:33:32.823Z,8.00
2019-05-11T04:38:14.981Z,8.20
2019-05-11T04:43:00.215Z,8.50
2019-05-11T04:47:45.505Z,9.20
2019-05-11T04:52:30.606Z,10.00
2019-05-11T04:57:15.506Z,10.60
2019-05-11T05:02:00.320Z,11.10
2019-05-11T05:06:58.883Z,11.10
2019-05-11T05:11:36.825Z,11.10
2019-05-11T05:16:21.075Z,11.20
2019-05-11T05:21:05.730Z,11.20
2019-05-11T05:25:50.990Z,11.60
2019-05-11T05:30:35.865Z,12.00
2019-05-11T05:35:22.006Z,12.30
2019-05-11T05:40:07.211Z,12.60
2019-05-11T05:44:52.199Z,12.50
2019-05-11T05:49:37.545Z,12.40
2019-05-11T05:54:23.131Z,12.20
2019-05-11T05:59:08.082Z,12.20
2019-05-11T06:03:53.473Z,12.20
2019-05-11T06:08:43.020Z,12.20
2019-05-11T06:13:42.777Z,12.30
2019-05-11T06:18:12.923Z,12.30
2019-05-11T06:22:58.178Z,12.40
2019-05-11T06:27:43.165Z,12.60
2019-05-11T06:32:28.068Z,13.30
2019-05-11T06:37:12.831Z,13.90
2019-05-11T06:41:57.789Z,14.10
2019-05-11T06:46:42.694Z,14.30
2019-05-11T06:51:27.979Z,14.10
2019-05-11T06:56:12.914Z,14.10
2019-05-11T07:00:58.103Z,14.10
2019-05-11T07:05:44.405Z,14.00
2019-05-11T07:10:29.349Z,14.00
2019-05-11T07:15:14.822Z,13.80
2019-05-11T07:20:00.109Z,13.60
2019-05-11T07:24:45.327Z,13.60
2019-05-11T07:29:30.672Z,13.40
2019-05-11T07:34:15.688Z,13.30
2019-05-11T07:39:00.721Z,13.30
2019-05-11T07:43:48.312Z,13.30
2019-05-11T07:48:32.856Z,13.10
2019-05-11T07:53:18.664Z,12.90
2019-05-11T07:58:03.508Z,12.70
2019-05-11T08:02:48.701Z,12.50
2019-05-11T08:07:33.496Z,12.30
2019-05-11T08:12:19.166Z,12.10
2019-05-11T08:17:04.014Z,12.00
2019-05-11T08:21:49.004Z,11.70
2019-05-11T08:26:33.879Z,11.70
2019-05-11T08:31:21.133Z,11.80
2019-05-11T08:36:08.237Z,11.80
2019-05-11T08:40:54.463Z,11.90
2019-05-11T08:45:41.185Z,12.10
2019-05-11T08:50:28.150Z,12.30
2019-05-11T08:55:13.422Z,12.40
2019-05-11T08:59:58.215Z,12.40
2019-05-11T09:04:42.939Z,12.30
2019-05-11T09:09:28.835Z,12.20
2019-05-11T09:14:13.706Z,12.10
2019-05-11T09:18:58.776Z,12.00
2019-05-11T09:23:43.877Z,11.80
2019-05-11T09:28:29.590Z,11.90
2019-05-11T09:33:17.722Z,12.00
2019-05-11T09:38:01.336Z,12.00
2019-05-11T09:42:47.915Z,12.00
2019-05-11T09:47:33.078Z,12.10
2019-05-11T09:52:18.453Z,12.10
2019-05-11T09:57:03.512Z,11.90
2019-05-11T10:01:50.438Z,11.80
2019-05-11T10:06:35.845Z,11.80
2019-05-11T10:11:20.848Z,11.70
2019-05-11T10:16:08.104Z,11.60
2019-05-11T10:20:54.469Z,11.60
2019-05-11T10:25:39.570Z,11.60
2019-05-11T10:30:27.809Z,11.90
2019-05-11T10:35:12.444Z,12.10
2019-05-11T10:39:57.854Z,12.20
2019-05-11T10:44:43.062Z,12.50
2019-05-11T10:49:30.450Z,12.90
2019-05-11T10:54:15.299Z,13.30
2019-05-11T10:59:00.402Z,13.40
2019-05-11T11:03:48.122Z,13.50
2019-05-11T11:08:32.218Z,13.50
2019-05-11T11:13:18.780Z,13.30
2019-05-11T11:18:03.604Z,13.10
2019-05-11T11:22:51.262Z,13.10
2019-05-11T11:27:38.084Z,13.10
2019-05-11T11:32:23.385Z,13.00
2019-05-11T11:37:08.433Z,12.80
2019-05-11T11:41:53.464Z,12.70
2019-05-11T11:46:51.402Z,12.50
2019-05-11T11:51:25.636Z,12.40
2019-05-11T11:56:10.720Z,12.40
2019-05-11T12:00:55.271Z,12.40
2019-05-11T12:05:40.004Z,12.50
2019-05-11T12:10:24.991Z,12.70
2019-05-11T12:15:09.893Z,12.90
2019-05-11T12:19:58.561Z,12.90
2019-05-11T12:24:43.400Z,12.70
2019-05-11T12:29:28.345Z,12.70
2019-05-11T12:34:13.489Z,12.50
2019-05-11T12:38:58.551Z,12.50
2019-05-11T12:43:43.355Z,12.30
2019-05-11T12:48:28.556Z,12.30
2019-05-11T12:53:13.505Z,12.30
2019-05-11T12:57:58.441Z,12.30
2019-05-11T13:02:43.135Z,12.20
2019-05-11T13:07:28.481Z,12.30
2019-05-11T13:12:14.872Z,12.30
2019-05-11T13:17:00.080Z,12.30
2019-05-11T13:21:44.929Z,12.30
2019-05-11T13:26:37.480Z,12.40
2019-05-11T13:31:22.658Z,12.40
2019-05-11T13:36:09.109Z,12.50
2019-05-11T13:40:54.153Z,12.40
